createdAt,value
2017-11-21T00:00:17.176Z,15.80
2017-11-21T00:02:44.852Z,15.97
2017-11-21T00:05:12.565Z,16.27
2017-11-21T00:07:40.228Z,15.23
2017-11-21T00:10:07.889Z,15.53
2017-11-21T00:12:35.622Z,15.63
2017-11-21T00:15:03.287Z,16.43
2017-11-21T00:17:30.984Z,15.93
2017-11-21T00:19:58.649Z,15.10
2017-11-21T00:22:32.152Z,15.37
2017-11-21T00:24:59.820Z,15.63
2017-11-21T00:27:27.529Z,15.93
2017-11-21T00:29:55.129Z,15.40
2017-11-21T00:32:22.820Z,16.40
2017-11-21T00:34:50.414Z,16.57
2017-11-21T00:37:18.096Z,15.80
2017-11-21T00:39:45.743Z,17.10
2017-11-21T00:42:13.450Z,15.10
2017-11-21T00:44:41.114Z,15.47
2017-11-21T00:47:08.808Z,16.00
2017-11-21T00:49:36.483Z,16.17
2017-11-21T00:52:04.230Z,15.33
2017-11-21T00:54:31.901Z,15.13
2017-11-21T00:56:59.612Z,15.03
2017-11-21T00:59:27.273Z,14.80
2017-11-21T01:01:54.970Z,15.73
2017-11-21T01:04:22.636Z,15.70
2017-11-21T01:06:50.304Z,15.77
2017-11-21T01:09:18.007Z,15.30
2017-11-21T01:11:45.679Z,15.20
2017-11-21T01:14:13.382Z,15.57
2017-11-21T01:16:41.035Z,15.43
2017-11-21T01:19:08.747Z,16.03
2017-11-21T01:21:36.417Z,14.60
2017-11-21T01:24:04.114Z,15.10
2017-11-21T01:26:31.772Z,15.47
2017-11-21T01:28:59.479Z,14.47
2017-11-21T01:31:27.147Z,14.20
2017-11-21T01:33:54.839Z,15.07
2017-11-21T01:36:22.492Z,14.53
2017-11-21T01:38:50.119Z,14.70
2017-11-21T01:41:17.783Z,15.30
2017-11-21T01:43:45.479Z,13.50
2017-11-21T01:46:13.161Z,15.90
2017-11-21T01:48:40.844Z,14.63
2017-11-21T01:51:08.505Z,14.20
2017-11-21T01:53:36.254Z,15.53
2017-11-21T01:56:03.908Z,14.67
2017-11-21T01:58:31.556Z,14.07
2017-11-21T02:00:59.225Z,12.63
2017-11-21T02:03:26.879Z,14.33
2017-11-21T02:05:54.584Z,14.00
2017-11-21T02:08:22.269Z,14.97
2017-11-21T02:10:49.966Z,13.93
2017-11-21T02:13:17.560Z,13.47
2017-11-21T02:15:45.263Z,14.23
2017-11-21T02:18:12.930Z,13.87
2017-11-21T02:20:40.686Z,14.80
2017-11-21T02:23:08.344Z,13.60
2017-11-21T02:25:36.058Z,14.10
2017-11-21T02:28:03.731Z,14.70
2017-11-21T02:30:31.445Z,13.20
2017-11-21T02:32:59.063Z,14.27
2017-11-21T02:35:26.772Z,14.47
2017-11-21T02:37:54.445Z,14.47
2017-11-21T02:40:22.186Z,15.60
2017-11-21T02:42:49.913Z,14.10
2017-11-21T02:45:17.618Z,13.77
2017-11-21T02:47:45.260Z,13.80
2017-11-21T02:50:12.921Z,15.03
2017-11-21T02:52:40.677Z,14.77
2017-11-21T02:55:08.365Z,15.77
2017-11-21T02:57:36.064Z,14.13
2017-11-21T03:00:03.667Z,14.80
2017-11-21T03:02:31.357Z,14.67
2017-11-21T03:04:59.023Z,14.90
2017-11-21T03:07:26.711Z,15.10
2017-11-21T03:09:54.364Z,14.93
2017-11-21T03:12:22.085Z,14.53
2017-11-21T03:14:49.725Z,15.60
2017-11-21T03:17:17.415Z,15.10
2017-11-21T03:19:45.084Z,14.83
2017-11-21T03:22:24.615Z,14.07
2017-11-21T03:25:03.857Z,13.97
2017-11-21T03:27:34.237Z,15.27
2017-11-21T03:30:01.911Z,15.33
2017-11-21T03:32:29.610Z,15.37
2017-11-21T03:34:57.278Z,14.70
2017-11-21T03:37:24.999Z,13.60
2017-11-21T03:39:52.656Z,14.47
2017-11-21T03:42:20.315Z,14.50
2017-11-21T03:44:48.030Z,13.60
2017-11-21T03:47:15.682Z,14.60
2017-11-21T03:49:43.387Z,14.00
2017-11-21T03:52:11.089Z,14.80
2017-11-21T03:54:38.798Z,14.07
2017-11-21T03:57:06.466Z,13.47
2017-11-21T03:59:34.173Z,14.30
2017-11-21T04:02:01.840Z,13.40
2017-11-21T04:04:29.549Z,14.33
2017-11-21T04:06:57.231Z,14.30
2017-11-21T04:09:24.925Z,14.33
2017-11-21T04:11:52.524Z,12.53
2017-11-21T04:14:20.254Z,13.53
2017-11-21T04:16:47.915Z,14.40
2017-11-21T04:19:15.554Z,14.47
2017-11-21T04:21:43.239Z,15.00
2017-11-21T04:24:10.965Z,14.80
2017-11-21T04:26:38.654Z,14.00
2017-11-21T04:29:06.345Z,15.27
2017-11-21T04:31:34.038Z,14.47
2017-11-21T04:34:01.689Z,14.60
2017-11-21T04:36:29.395Z,13.83
2017-11-21T04:38:57.065Z,13.73
2017-11-21T04:41:24.766Z,13.87
2017-11-21T04:43:52.425Z,14.67
2017-11-21T04:46:20.124Z,13.90
2017-11-21T04:48:47.782Z,13.00
2017-11-21T04:51:15.489Z,14.03
2017-11-21T04:53:43.188Z,14.23
2017-11-21T04:56:10.872Z,13.93
2017-11-21T04:58:38.543Z,14.73
2017-11-21T05:01:06.235Z,13.33
2017-11-21T05:03:33.897Z,14.00
2017-11-21T05:06:01.604Z,13.30
2017-11-21T05:08:29.267Z,12.77
2017-11-21T05:10:56.978Z,13.23
2017-11-21T05:13:24.642Z,13.43
2017-11-21T05:15:52.311Z,12.93
2017-11-21T05:18:20.019Z,12.77
2017-11-21T05:20:47.696Z,14.10
2017-11-21T05:23:15.400Z,12.27
2017-11-21T05:25:43.069Z,12.03
2017-11-21T05:28:10.707Z,14.47
2017-11-21T05:30:38.380Z,14.30
2017-11-21T05:33:18.021Z,13.43
2017-11-21T05:35:45.690Z,12.57
2017-11-21T05:38:13.327Z,12.00
2017-11-21T05:40:40.984Z,12.57
2017-11-21T05:43:08.624Z,12.77
2017-11-21T05:45:36.228Z,13.00
2017-11-21T05:48:03.879Z,12.77
2017-11-21T05:50:31.481Z,11.93
2017-11-21T05:52:59.133Z,11.40
2017-11-21T05:55:26.758Z,11.70
2017-11-21T05:57:54.347Z,11.47
2017-11-21T06:00:22.008Z,11.23
2017-11-21T06:02:49.606Z,11.27
2017-11-21T06:05:17.284Z,12.23
2017-11-21T06:07:44.897Z,10.70
2017-11-21T06:10:12.571Z,12.33
2017-11-21T06:12:40.167Z,11.30
2017-11-21T06:15:07.823Z,11.37
2017-11-21T06:17:35.425Z,12.20
2017-11-21T06:20:03.141Z,10.43
2017-11-21T06:22:30.804Z,12.20
2017-11-21T06:24:58.518Z,11.10
2017-11-21T06:27:26.199Z,10.37
2017-11-21T06:29:53.908Z,10.67
2017-11-21T06:32:21.581Z,10.67
2017-11-21T06:34:49.268Z,11.20
2017-11-21T06:37:16.938Z,10.33
2017-11-21T06:39:44.662Z,11.33
2017-11-21T06:42:12.332Z,12.63
2017-11-21T06:44:40.026Z,11.93
2017-11-21T06:47:07.718Z,10.10
2017-11-21T06:49:35.398Z,12.30
2017-11-21T06:52:03.138Z,11.60
2017-11-21T06:54:30.795Z,11.67
2017-11-21T06:56:58.513Z,12.67
2017-11-21T06:59:26.184Z,50.13
2017-11-21T07:01:53.884Z,13.20
2017-11-21T07:04:21.547Z,12.87
2017-11-21T07:06:49.248Z,12.10
2017-11-21T07:09:16.936Z,12.20
2017-11-21T07:11:44.638Z,11.50
2017-11-21T07:14:12.315Z,10.90
2017-11-21T07:16:40.018Z,10.60
2017-11-21T07:19:07.683Z,12.70
2017-11-21T07:21:35.400Z,14.90
2017-11-21T07:24:03.077Z,12.20
2017-11-21T07:26:30.804Z,11.40
2017-11-21T07:28:58.476Z,13.80
2017-11-21T07:31:26.199Z,12.40
2017-11-21T07:33:53.863Z,12.00
2017-11-21T07:36:21.581Z,11.20
2017-11-21T07:38:49.186Z,13.20
2017-11-21T07:41:16.872Z,11.80
2017-11-21T07:43:44.577Z,11.77
2017-11-21T07:46:12.251Z,13.67
2017-11-21T07:48:39.953Z,11.60
2017-11-21T07:51:07.616Z,12.83
2017-11-21T07:53:35.380Z,11.27
2017-11-21T07:56:03.065Z,10.47
2017-11-21T07:58:30.782Z,10.33
2017-11-21T08:00:58.440Z,12.07
2017-11-21T08:03:26.076Z,11.47
2017-11-21T08:05:53.744Z,12.50
2017-11-21T08:08:21.462Z,10.97
2017-11-21T08:10:49.147Z,11.90
2017-11-21T08:13:16.882Z,11.30
2017-11-21T08:15:44.563Z,13.30
2017-11-21T08:18:12.307Z,12.10
2017-11-21T08:20:39.910Z,12.17
2017-11-21T08:23:07.574Z,11.80
2017-11-21T08:25:35.196Z,11.50
2017-11-21T08:28:02.857Z,12.17
2017-11-21T08:30:30.467Z,11.60
2017-11-21T08:32:58.117Z,11.83
2017-11-21T08:35:25.797Z,11.83
2017-11-21T08:37:55.316Z,12.37
2017-11-21T08:40:23.133Z,11.90
2017-11-21T08:42:50.893Z,11.33
2017-11-21T08:45:18.530Z,12.27
2017-11-21T08:47:46.219Z,10.60
2017-11-21T08:50:13.865Z,11.77
2017-11-21T08:52:41.767Z,10.70
2017-11-21T08:55:09.418Z,10.93
2017-11-21T08:57:37.028Z,10.40
2017-11-21T09:00:04.667Z,11.00
2017-11-21T09:02:32.313Z,11.17
2017-11-21T09:04:59.957Z,10.80
2017-11-21T09:07:27.631Z,10.20
2017-11-21T09:09:55.302Z,10.23
2017-11-21T09:12:23.009Z,11.37
2017-11-21T09:14:50.708Z,10.10
2017-11-21T09:17:18.397Z,10.60
2017-11-21T09:19:46.095Z,9.67
2017-11-21T09:22:13.763Z,11.17
2017-11-21T09:24:41.401Z,11.00
2017-11-21T09:27:09.961Z,12.13
2017-11-21T09:29:37.676Z,35.10
2017-11-21T09:32:05.315Z,20.07
2017-11-21T09:34:32.964Z,10.47
2017-11-21T09:37:00.560Z,19.47
2017-11-21T09:39:28.233Z,10.20
2017-11-21T09:41:55.895Z,11.33
2017-11-21T09:44:23.630Z,11.30
2017-11-21T09:46:51.221Z,10.90
2017-11-21T09:49:18.913Z,10.13
2017-11-21T09:51:46.971Z,11.00
2017-11-21T09:54:14.662Z,10.00
2017-11-21T09:56:42.643Z,10.23
2017-11-21T09:59:10.356Z,9.80
2017-11-21T10:01:38.548Z,10.50
2017-11-21T10:04:06.272Z,11.10
2017-11-21T10:06:34.115Z,10.40
2017-11-21T10:09:01.944Z,10.57
2017-11-21T10:11:30.002Z,10.10
2017-11-21T10:13:57.841Z,10.57
2017-11-21T10:16:25.772Z,11.50
2017-11-21T10:18:53.577Z,10.77
2017-11-21T10:21:21.312Z,11.23
2017-11-21T10:23:49.086Z,10.20
2017-11-21T10:26:16.866Z,11.03
2017-11-21T10:28:45.609Z,9.13
2017-11-21T10:31:14.356Z,9.77
2017-11-21T10:33:42.120Z,11.13
2017-11-21T10:36:10.320Z,10.20
2017-11-21T10:38:38.026Z,9.00
2017-11-21T10:41:05.720Z,10.43
2017-11-21T10:43:33.766Z,9.93
2017-11-21T10:46:01.861Z,9.80
2017-11-21T10:48:29.605Z,10.70
2017-11-21T10:50:57.395Z,10.57
2017-11-21T10:53:25.520Z,10.57
2017-11-21T10:55:53.300Z,10.90
2017-11-21T10:58:20.942Z,10.73
2017-11-21T11:00:48.724Z,10.00
2017-11-21T11:03:16.744Z,9.83
2017-11-21T11:05:44.482Z,9.97
2017-11-21T11:08:12.628Z,10.50
2017-11-21T11:10:40.655Z,10.40
2017-11-21T11:13:10.219Z,9.97
2017-11-21T11:15:38.274Z,9.83
2017-11-21T11:18:06.039Z,9.87
2017-11-21T11:20:33.807Z,9.93
2017-11-21T11:23:01.596Z,9.90
2017-11-21T11:25:29.736Z,9.83
2017-11-21T11:27:58.527Z,10.50
2017-11-21T11:30:26.228Z,10.13
2017-11-21T11:32:54.346Z,9.40
2017-11-21T11:35:22.305Z,9.57
2017-11-21T11:37:50.057Z,10.77
2017-11-21T11:40:18.100Z,10.13
2017-11-21T11:42:45.926Z,11.23
2017-11-21T11:45:13.611Z,10.17
2017-11-21T11:47:41.416Z,9.50
2017-11-21T11:50:09.295Z,9.87
2017-11-21T11:52:37.006Z,10.00
2017-11-21T11:55:04.719Z,10.40
2017-11-21T11:57:32.715Z,9.87
2017-11-21T12:00:01.141Z,9.77
2017-11-21T12:02:29.160Z,9.30
2017-11-21T12:04:57.301Z,10.37
2017-11-21T12:07:25.147Z,9.80
2017-11-21T12:09:52.832Z,9.63
2017-11-21T12:12:21.090Z,9.73
2017-11-21T12:14:49.047Z,8.80
2017-11-21T12:17:17.576Z,10.30
2017-11-21T12:19:45.403Z,9.67
2017-11-21T12:22:13.566Z,9.47
2017-11-21T12:24:41.749Z,9.07
2017-11-21T12:27:09.766Z,10.63
2017-11-21T12:29:37.924Z,10.10
2017-11-21T12:32:06.134Z,10.43
2017-11-21T12:34:33.852Z,9.70
2017-11-21T12:37:01.595Z,9.40
2017-11-21T12:39:30.443Z,10.50
2017-11-21T12:41:58.495Z,9.80
2017-11-21T12:44:26.880Z,9.20
2017-11-21T12:46:54.753Z,11.10
2017-11-21T12:49:22.815Z,9.77
2017-11-21T12:51:50.873Z,9.70
2017-11-21T12:54:19.661Z,9.00
2017-11-21T12:56:47.514Z,9.10
2017-11-21T12:59:15.402Z,8.60
2017-11-21T13:01:43.513Z,8.70
2017-11-21T13:04:11.251Z,9.10
2017-11-21T13:06:38.921Z,8.30
2017-11-21T13:09:06.987Z,10.13
2017-11-21T13:11:34.664Z,7.60
2017-11-21T13:14:02.631Z,9.10
2017-11-21T13:16:31.577Z,10.17
2017-11-21T13:18:59.339Z,9.23
2017-11-21T13:21:27.293Z,8.67
2017-11-21T13:23:55.084Z,9.60
2017-11-21T13:26:22.832Z,9.80
2017-11-21T13:28:51.721Z,13.20
2017-11-21T13:31:19.675Z,9.77
2017-11-21T13:33:47.274Z,10.57
2017-11-21T13:36:15.201Z,16.17
2017-11-21T13:38:42.897Z,9.77
2017-11-21T13:41:11.043Z,10.13
2017-11-21T13:43:40.259Z,10.53
2017-11-21T13:46:08.194Z,19.53
2017-11-21T13:48:35.945Z,11.80
2017-11-21T13:51:04.917Z,10.43
2017-11-21T13:53:32.684Z,10.37
2017-11-21T13:56:00.575Z,10.90
2017-11-21T13:58:28.306Z,10.33
2017-11-21T14:00:56.004Z,9.70
2017-11-21T14:03:23.674Z,12.43
2017-11-21T14:05:51.438Z,9.73
2017-11-21T14:08:19.462Z,11.10
2017-11-21T14:10:47.186Z,9.80
2017-11-21T14:13:15.240Z,10.87
2017-11-21T14:15:43.013Z,11.30
2017-11-21T14:18:11.262Z,11.20
2017-11-21T14:20:39.398Z,11.67
2017-11-21T14:23:07.501Z,10.03
2017-11-21T14:25:35.679Z,11.10
2017-11-21T14:28:03.350Z,10.00
2017-11-21T14:30:31.570Z,10.40
2017-11-21T14:32:59.254Z,10.23
2017-11-21T14:35:27.228Z,9.97
2017-11-21T14:37:55.009Z,9.53
2017-11-21T14:40:22.740Z,10.30
2017-11-21T14:42:51.706Z,10.70
2017-11-21T14:45:19.713Z,10.50
2017-11-21T14:47:47.720Z,10.50
2017-11-21T14:50:15.464Z,10.80
2017-11-21T14:52:43.212Z,10.77
2017-11-21T14:55:12.239Z,10.40
2017-11-21T14:57:40.036Z,11.17
2017-11-21T15:00:07.700Z,10.33
2017-11-21T15:02:35.418Z,16.07
2017-11-21T15:05:03.178Z,19.00
2017-11-21T15:07:31.170Z,13.20
2017-11-21T15:09:58.784Z,15.20
2017-11-21T15:12:27.130Z,11.63
2017-11-21T15:14:54.797Z,12.97
2017-11-21T15:17:22.562Z,11.73
2017-11-21T15:19:50.534Z,13.20
2017-11-21T15:22:18.290Z,10.40
2017-11-21T15:24:47.086Z,21.77
2017-11-21T15:27:14.785Z,11.17
2017-11-21T15:29:43.420Z,11.47
2017-11-21T15:32:12.139Z,10.20
2017-11-21T15:34:39.912Z,10.90
2017-11-21T15:37:07.889Z,11.47
2017-11-21T15:39:35.588Z,11.13
2017-11-21T15:42:03.481Z,10.40
2017-11-21T15:44:31.298Z,9.37
2017-11-21T15:46:58.913Z,9.83
2017-11-21T15:49:26.595Z,10.60
2017-11-21T15:51:54.304Z,10.50
2017-11-21T15:54:22.466Z,10.80
2017-11-21T15:56:50.164Z,10.10
2017-11-21T15:59:18.096Z,8.80
2017-11-21T16:01:45.755Z,8.93
2017-11-21T16:04:13.535Z,9.37
2017-11-21T16:06:41.133Z,10.60
2017-11-21T16:09:08.859Z,9.97
2017-11-21T16:11:37.325Z,10.07
2017-11-21T16:14:05.482Z,8.57
2017-11-21T16:16:33.235Z,8.57
2017-11-21T16:19:01.348Z,9.17
2017-11-21T16:21:29.440Z,8.10
2017-11-21T16:23:57.431Z,9.43
2017-11-21T16:26:25.153Z,9.43
2017-11-21T16:28:53.081Z,9.07
2017-11-21T16:31:22.318Z,8.10
2017-11-21T16:33:50.316Z,7.90
2017-11-21T16:36:18.047Z,7.63
2017-11-21T16:38:45.792Z,8.60
2017-11-21T16:41:13.426Z,8.83
2017-11-21T16:43:41.424Z,8.67
2017-11-21T16:46:09.343Z,8.63
2017-11-21T16:48:36.950Z,8.70
2017-11-21T16:51:04.608Z,8.10
2017-11-21T16:53:32.307Z,9.17
2017-11-21T16:56:00.236Z,7.70
2017-11-21T16:58:28.154Z,7.70
2017-11-21T17:00:55.798Z,8.20
2017-11-21T17:03:23.447Z,8.50
2017-11-21T17:05:51.504Z,9.60
2017-11-21T17:08:19.237Z,8.67
2017-11-21T17:10:46.983Z,17.33
2017-11-21T17:13:14.670Z,8.57
2017-11-21T17:15:42.820Z,9.73
2017-11-21T17:18:10.694Z,7.10
2017-11-21T17:20:38.807Z,18.20
2017-11-21T17:23:06.881Z,7.63
2017-11-21T17:25:34.572Z,7.30
2017-11-21T17:28:02.314Z,12.90
2017-11-21T17:30:30.347Z,8.60
2017-11-21T17:32:58.139Z,8.10
2017-11-21T17:35:25.855Z,6.97
2017-11-21T17:37:54.084Z,7.50
2017-11-21T17:40:21.966Z,7.13
2017-11-21T17:42:49.628Z,7.57
2017-11-21T17:45:17.813Z,7.27
2017-11-21T17:47:45.814Z,6.80
2017-11-21T17:50:13.867Z,7.40
2017-11-21T17:52:41.604Z,7.07
2017-11-21T17:55:09.752Z,8.40
2017-11-21T17:57:37.771Z,7.40
2017-11-21T18:00:06.303Z,7.67
2017-11-21T18:02:34.444Z,6.77
2017-11-21T18:05:02.242Z,7.30
2017-11-21T18:07:30.289Z,7.53
2017-11-21T18:09:58.717Z,7.83
2017-11-21T18:12:26.337Z,7.37
2017-11-21T18:14:54.411Z,8.60
2017-11-21T18:17:22.115Z,8.27
2017-11-21T18:19:49.804Z,8.10
2017-11-21T18:22:17.478Z,7.37
2017-11-21T18:24:45.222Z,7.33
2017-11-21T18:27:13.522Z,7.20
2017-11-21T18:29:43.438Z,6.90
2017-11-21T18:32:11.546Z,7.20
2017-11-21T18:34:39.359Z,6.80
2017-11-21T18:37:07.133Z,7.30
2017-11-21T18:39:34.936Z,6.97
2017-11-21T18:42:02.748Z,6.67
2017-11-21T18:44:31.391Z,6.83
2017-11-21T18:46:59.482Z,6.90
2017-11-21T18:49:27.174Z,7.63
2017-11-21T18:51:54.865Z,7.53
2017-11-21T18:54:23.049Z,6.57
2017-11-21T18:56:51.120Z,6.90
2017-11-21T18:59:19.384Z,6.57
2017-11-21T19:01:47.983Z,6.50
2017-11-21T19:04:15.639Z,6.63
2017-11-21T19:06:43.696Z,7.10
2017-11-21T19:09:11.716Z,7.00
2017-11-21T19:11:39.421Z,7.53
2017-11-21T19:14:07.325Z,5.60
2017-11-21T19:16:36.000Z,5.93
2017-11-21T19:19:03.709Z,6.83
2017-11-21T19:21:31.675Z,6.47
2017-11-21T19:23:59.939Z,6.13
2017-11-21T19:26:28.249Z,6.73
2017-11-21T19:28:56.210Z,6.77
2017-11-21T19:31:25.695Z,6.67
2017-11-21T19:33:53.513Z,5.80
2017-11-21T19:36:21.617Z,6.30
2017-11-21T19:38:50.215Z,6.53
2017-11-21T19:41:18.203Z,6.47
2017-11-21T19:43:47.039Z,6.47
2017-11-21T19:46:15.596Z,6.00
2017-11-21T19:48:43.417Z,6.17
2017-11-21T19:51:11.131Z,5.27
2017-11-21T19:53:39.738Z,7.27
2017-11-21T19:56:07.811Z,6.90
2017-11-21T19:58:36.522Z,6.70
2017-11-21T20:01:04.483Z,6.30
2017-11-21T20:03:33.378Z,6.87
2017-11-21T20:06:02.011Z,5.70
2017-11-21T20:08:30.093Z,5.50
2017-11-21T20:10:58.583Z,6.80
2017-11-21T20:13:27.898Z,6.40
2017-11-21T20:15:57.056Z,6.07
2017-11-21T20:18:25.124Z,6.63
2017-11-21T20:20:54.934Z,5.87
2017-11-21T20:23:24.042Z,6.37
2017-11-21T20:25:52.118Z,6.80
2017-11-21T20:28:19.856Z,6.07
2017-11-21T20:30:48.644Z,6.97
2017-11-21T20:33:17.072Z,6.43
2017-11-21T20:35:46.118Z,6.30
2017-11-21T20:38:14.033Z,6.13
2017-11-21T20:40:42.768Z,5.80
2017-11-21T20:43:11.409Z,6.00
2017-11-21T20:45:39.377Z,5.83
2017-11-21T20:48:07.418Z,6.83
2017-11-21T20:50:35.401Z,6.70
2017-11-21T20:53:03.569Z,6.90
2017-11-21T20:55:31.680Z,5.80
2017-11-21T20:57:59.532Z,5.83
2017-11-21T21:00:28.453Z,5.93
2017-11-21T21:02:56.506Z,5.43
2017-11-21T21:05:24.303Z,6.17
2017-11-21T21:07:52.277Z,5.93
2017-11-21T21:10:20.504Z,6.70
2017-11-21T21:12:48.750Z,6.80
2017-11-21T21:15:16.761Z,6.17
2017-11-21T21:17:44.685Z,6.37
2017-11-21T21:20:12.633Z,6.27
2017-11-21T21:22:41.134Z,6.30
2017-11-21T21:25:09.908Z,6.13
2017-11-21T21:27:41.552Z,6.10
2017-11-21T21:30:09.570Z,7.30
2017-11-21T21:32:38.128Z,6.40
2017-11-21T21:35:05.903Z,6.70
2017-11-21T21:37:34.427Z,6.47
2017-11-21T21:40:02.459Z,5.43
2017-11-21T21:42:30.401Z,7.40
2017-11-21T21:44:58.299Z,6.53
2017-11-21T21:47:26.353Z,7.27
2017-11-21T21:49:54.482Z,6.90
2017-11-21T21:52:23.165Z,6.30
2017-11-21T21:54:51.912Z,6.40
2017-11-21T21:57:19.626Z,6.40
2017-11-21T21:59:47.676Z,6.90
2017-11-21T22:02:15.310Z,6.93
2017-11-21T22:04:43.261Z,7.07
2017-11-21T22:07:11.213Z,5.90
2017-11-21T22:09:38.927Z,6.97
2017-11-21T22:12:06.615Z,6.90
2017-11-21T22:14:34.539Z,6.73
2017-11-21T22:17:02.376Z,7.00
2017-11-21T22:19:30.377Z,5.63
2017-11-21T22:21:58.572Z,6.23
2017-11-21T22:24:26.440Z,6.50
2017-11-21T22:26:54.503Z,7.07
2017-11-21T22:29:22.782Z,6.10
2017-11-21T22:31:50.573Z,5.97
2017-11-21T22:34:18.845Z,6.43
2017-11-21T22:36:47.836Z,6.13
2017-11-21T22:39:15.643Z,5.80
2017-11-21T22:41:44.148Z,5.73
2017-11-21T22:44:11.987Z,5.30
2017-11-21T22:46:39.802Z,5.30
2017-11-21T22:49:07.440Z,4.67
2017-11-21T22:51:35.493Z,5.00
2017-11-21T22:54:03.522Z,5.50
2017-11-21T22:56:31.301Z,5.30
2017-11-21T22:58:59.026Z,5.20
2017-11-21T23:01:27.141Z,4.03
2017-11-21T23:03:54.880Z,4.90
2017-11-21T23:06:22.922Z,4.43
2017-11-21T23:08:52.484Z,4.13
2017-11-21T23:11:20.437Z,4.03
2017-11-21T23:13:48.136Z,4.33
2017-11-21T23:16:16.305Z,3.50
2017-11-21T23:18:45.254Z,3.30
2017-11-21T23:21:13.196Z,4.07
2017-11-21T23:23:41.292Z,3.80
2017-11-21T23:26:09.271Z,3.60
2017-11-21T23:28:37.582Z,3.57
2017-11-21T23:31:05.701Z,2.83
2017-11-21T23:33:33.343Z,3.10
2017-11-21T23:36:01.115Z,2.10
2017-11-21T23:38:28.845Z,2.33
2017-11-21T23:40:56.902Z,2.20
2017-11-21T23:43:24.602Z,2.30
2017-11-21T23:45:52.278Z,2.20
2017-11-21T23:48:20.086Z,2.30
2017-11-21T23:50:47.744Z,2.20
2017-11-21T23:53:16.767Z,2.00
2017-11-21T23:55:45.473Z,1.83
2017-11-21T23:58:13.496Z,1.70
